createdAt,value
2022-12-08T00:00:13.516Z,958.14
2022-12-08T00:05:14.869Z,958.05
2022-12-08T00:10:47.045Z,957.95
2022-12-08T00:15:18.716Z,957.99
2022-12-08T00:20:20.738Z,957.9
2022-12-08T00:25:22.847Z,957.86
2022-12-08T00:30:24.749Z,957.82
2022-12-08T00:35:26.241Z,957.84
2022-12-08T00:40:27.377Z,957.76
2022-12-08T00:45:28.754Z,957.72
2022-12-08T00:50:30.408Z,957.72
2022-12-08T00:55:32.350Z,957.69
2022-12-08T01:00:34.397Z,957.58
2022-12-08T01:05:36.317Z,957.63
2022-12-08T01:10:38.191Z,957.62
2022-12-08T01:15:39.884Z,957.61
2022-12-08T01:20:41.087Z,957.64
2022-12-08T01:25:42.410Z,957.62
2022-12-08T01:30:44.577Z,957.66
2022-12-08T01:45:49.149Z,957.57
2022-12-08T02:05:55.952Z,957.36
2022-12-08T02:26:02.320Z,957.13
2022-12-08T02:31:04.363Z,957.08
2022-12-08T02:36:06.433Z,957.06
2022-12-08T02:46:09.859Z,956.99
2022-12-08T03:01:14.650Z,956.85
2022-12-08T03:06:16.305Z,956.92
2022-12-08T03:11:17.604Z,956.92
2022-12-08T03:16:18.905Z,956.82
2022-12-08T03:21:20.717Z,956.79
2022-12-08T03:26:22.493Z,956.73
2022-12-08T03:31:24.022Z,956.69
2022-12-08T03:36:26.057Z,956.69
2022-12-08T03:41:27.779Z,956.69
2022-12-08T03:51:31.137Z,956.57
2022-12-08T03:56:32.681Z,956.61
2022-12-08T04:01:34.631Z,956.61
2022-12-08T04:06:35.746Z,956.49
2022-12-08T04:11:37.019Z,956.57
2022-12-08T04:16:38.793Z,956.51
2022-12-08T04:21:40.958Z,956.47
2022-12-08T04:26:42.530Z,956.6
2022-12-08T04:31:44.454Z,956.56
2022-12-08T04:36:45.782Z,956.47
2022-12-08T04:41:47.843Z,956.46
2022-12-08T04:46:49.083Z,956.35
2022-12-08T04:51:51.260Z,956.37
2022-12-08T04:56:52.672Z,956.38
2022-12-08T05:01:55.000Z,956.39
2022-12-08T05:06:56.021Z,956.35
2022-12-08T05:11:57.303Z,956.39
2022-12-08T05:17:00.305Z,956.3
2022-12-08T05:22:01.589Z,956.36
2022-12-08T05:27:03.369Z,956.5
2022-12-08T05:32:04.692Z,956.38
2022-12-08T05:37:06.032Z,956.32
2022-12-08T05:42:07.282Z,956.3
2022-12-08T05:47:09.400Z,956.18
2022-12-08T05:52:10.646Z,956.26
2022-12-08T05:57:12.200Z,956.2
2022-12-08T06:02:14.354Z,956.22
2022-12-08T06:07:16.219Z,956.1
2022-12-08T06:12:17.694Z,956.09
2022-12-08T06:17:19.086Z,956.12
2022-12-08T06:22:20.483Z,956.23
2022-12-08T06:27:21.616Z,956.1
2022-12-08T06:32:27.359Z,956.2
2022-12-08T06:37:25.205Z,956.17
2022-12-08T06:42:27.170Z,956.11
2022-12-08T06:47:29.065Z,956.16
2022-12-08T06:52:31.184Z,956.1
2022-12-08T06:57:32.804Z,956.06
2022-12-08T07:02:34.589Z,956.1
2022-12-08T07:07:36.346Z,956.1
2022-12-08T07:12:37.622Z,956.12
2022-12-08T07:17:39.630Z,956.15
2022-12-08T07:22:41.458Z,956.24
2022-12-08T07:27:42.807Z,956.28
2022-12-08T07:32:44.317Z,956.19
2022-12-08T07:37:45.584Z,956.2
2022-12-08T07:42:47.487Z,956.23
2022-12-08T07:47:48.819Z,956.26
2022-12-08T07:52:50.255Z,956.27
2022-12-08T07:57:51.622Z,956.2
2022-12-08T08:02:53.087Z,956.32
2022-12-08T08:07:54.553Z,956.23
2022-12-08T08:12:56.622Z,956.26
2022-12-08T08:17:58.292Z,956.16
2022-12-08T08:23:00.336Z,956.23
2022-12-08T08:28:02.428Z,956.14
2022-12-08T08:33:04.098Z,956.21
2022-12-08T08:38:05.248Z,956.22
2022-12-08T08:43:06.532Z,956.2
2022-12-08T08:48:08.239Z,956.17
2022-12-08T08:53:09.575Z,956.22
2022-12-08T08:58:11.386Z,956.27
2022-12-08T09:03:13.879Z,956.29
2022-12-08T09:08:15.186Z,956.31
2022-12-08T09:13:17.002Z,956.22
2022-12-08T09:18:18.794Z,956.26
2022-12-08T09:23:20.617Z,956.26
2022-12-08T09:28:22.160Z,956.15
2022-12-08T09:33:23.672Z,956.08
2022-12-08T09:38:25.687Z,956.06
2022-12-08T09:43:27.391Z,955.95
2022-12-08T09:48:29.017Z,955.87
2022-12-08T09:53:35.425Z,955.9
2022-12-08T09:58:32.184Z,955.87
2022-12-08T10:03:33.629Z,955.76
2022-12-08T10:08:35.167Z,955.64
2022-12-08T10:13:37.148Z,955.58
2022-12-08T10:18:39.122Z,955.56
2022-12-08T10:23:41.292Z,955.43
2022-12-08T10:28:44.991Z,955.4
2022-12-08T10:33:44.341Z,955.37
2022-12-08T10:38:46.148Z,955.34
2022-12-08T10:43:48.187Z,955.22
2022-12-08T10:48:50.013Z,955.17
2022-12-08T10:53:51.285Z,955.13
2022-12-08T10:58:53.077Z,955.05
2022-12-08T11:03:54.793Z,955
2022-12-08T11:08:56.980Z,954.94
2022-12-08T11:13:58.690Z,954.92
2022-12-08T11:19:00.857Z,954.83
2022-12-08T11:24:02.627Z,954.79
2022-12-08T11:29:04.405Z,954.75
2022-12-08T11:34:12.204Z,954.71
2022-12-08T11:39:13.696Z,954.69
2022-12-08T11:44:14.929Z,954.63
2022-12-08T11:49:16.145Z,954.51
2022-12-08T11:54:17.784Z,954.54
2022-12-08T11:59:19.554Z,954.54
2022-12-08T12:04:21.163Z,954.52
2022-12-08T12:09:22.852Z,954.42
2022-12-08T12:14:24.589Z,954.42
2022-12-08T12:19:26.367Z,954.37
2022-12-08T12:24:32.888Z,954.31
2022-12-08T12:29:29.852Z,954.32
2022-12-08T12:34:31.444Z,954.23
2022-12-08T12:39:33.114Z,954.19
2022-12-08T12:44:34.892Z,954.22
2022-12-08T12:49:36.693Z,954.16
2022-12-08T12:54:38.146Z,954.14
2022-12-08T12:59:40.220Z,954.12
2022-12-08T13:04:42.327Z,954.13
2022-12-08T13:09:43.730Z,954.09
2022-12-08T13:14:45.052Z,954.04
2022-12-08T13:19:51.640Z,954.03
2022-12-08T13:24:48.080Z,954
2022-12-08T13:29:49.857Z,953.92
2022-12-08T13:34:52.065Z,953.86
2022-12-08T13:39:53.996Z,953.85
2022-12-08T14:00:00.190Z,953.89
2022-12-08T14:05:18.937Z,953.93
2022-12-08T14:10:03.259Z,953.97
2022-12-08T14:15:05.227Z,953.97
2022-12-08T14:20:07.107Z,954.04
2022-12-08T14:25:08.536Z,954.11
2022-12-08T14:30:09.873Z,954.11
2022-12-08T14:35:11.430Z,954.01
2022-12-08T14:40:13.081Z,953.9
2022-12-08T14:45:14.675Z,953.93
2022-12-08T14:50:16.893Z,953.87
2022-12-08T14:55:18.517Z,953.8
2022-12-08T15:00:20.053Z,953.78
2022-12-08T15:05:21.537Z,953.84
2022-12-08T15:10:22.678Z,953.83
2022-12-08T15:15:24.384Z,953.86
2022-12-08T15:20:30.132Z,953.85
2022-12-08T15:25:27.792Z,953.85
2022-12-08T15:30:29.841Z,953.95
2022-12-08T15:35:34.701Z,953.94
2022-12-08T15:40:32.964Z,953.93
2022-12-08T15:45:34.181Z,953.94
2022-12-08T15:50:35.882Z,953.96
2022-12-08T15:55:39.077Z,953.96
2022-12-08T16:00:55.515Z,953.95
2022-12-08T16:05:46.782Z,953.93
2022-12-08T16:11:24.009Z,953.89
2022-12-08T16:55:57.998Z,953.62
2022-12-08T17:00:59.841Z,953.59
2022-12-08T17:06:01.588Z,953.58
2022-12-08T17:16:05.693Z,953.6
2022-12-08T17:26:08.801Z,953.57
2022-12-08T17:36:12.669Z,953.44
2022-12-08T17:41:14.746Z,953.44
2022-12-08T17:46:16.164Z,953.39
2022-12-08T17:51:18.175Z,953.41
2022-12-08T17:56:20.376Z,953.44
2022-12-08T18:01:22.450Z,953.51
2022-12-08T18:06:26.939Z,953.46
2022-12-08T18:11:25.849Z,953.44
2022-12-08T18:16:27.699Z,953.5
2022-12-08T18:21:29.769Z,953.45
2022-12-08T18:26:31.293Z,953.52
2022-12-08T18:31:33.373Z,953.53
2022-12-08T18:36:35.471Z,953.53
2022-12-08T18:41:37.614Z,953.46
2022-12-08T18:46:39.759Z,953.42
2022-12-08T18:51:41.964Z,953.28
2022-12-08T18:56:43.741Z,953.39
2022-12-08T19:01:45.103Z,953.46
2022-12-08T19:06:46.758Z,953.38
2022-12-08T19:11:48.732Z,953.36
2022-12-08T19:16:50.522Z,953.41
2022-12-08T19:21:52.719Z,953.44
2022-12-08T19:26:54.371Z,953.39
2022-12-08T19:31:55.919Z,953.49
2022-12-08T19:36:57.496Z,953.42
2022-12-08T19:41:59.504Z,953.53
2022-12-08T19:47:02.477Z,953.52
2022-12-08T19:52:03.016Z,953.47
2022-12-08T19:57:04.735Z,953.38
2022-12-08T20:02:06.691Z,953.22
2022-12-08T20:07:07.999Z,953.31
2022-12-08T20:12:09.313Z,953.35
2022-12-08T20:17:11.362Z,953.33
2022-12-08T20:22:13.487Z,953.25
2022-12-08T20:27:15.323Z,953.24
2022-12-08T20:32:17.515Z,953.2
2022-12-08T20:37:18.721Z,953.23
2022-12-08T20:42:20.393Z,953.23
2022-12-08T20:47:21.787Z,953.27
2022-12-08T20:52:23.367Z,953.3
2022-12-08T20:57:25.255Z,953.19
2022-12-08T21:02:26.955Z,953.22
2022-12-08T21:07:28.237Z,953.2
2022-12-08T21:12:29.558Z,953.2
2022-12-08T21:17:30.975Z,953.06
2022-12-08T21:22:32.200Z,953.05
2022-12-08T21:27:34.397Z,952.99
2022-12-08T21:32:36.230Z,952.92
2022-12-08T21:37:37.424Z,953.02
2022-12-08T21:42:39.651Z,952.96
2022-12-08T21:47:40.780Z,952.95
2022-12-08T21:52:42.115Z,953.02
2022-12-08T21:57:43.863Z,953.23
2022-12-08T22:02:45.649Z,953.29
2022-12-08T22:07:47.347Z,953.2
2022-12-08T22:12:49.115Z,953.22
2022-12-08T22:17:50.848Z,953.16
2022-12-08T22:22:52.347Z,953.22
2022-12-08T22:27:54.110Z,953.26
2022-12-08T22:32:56.270Z,953.1
2022-12-08T22:37:58.411Z,953.01
2022-12-08T22:43:00.191Z,952.95
2022-12-08T22:48:02.122Z,952.97
2022-12-08T22:53:03.789Z,952.91
2022-12-08T22:58:05.777Z,952.76
2022-12-08T23:03:06.956Z,952.77
2022-12-08T23:08:08.743Z,952.74
2022-12-08T23:13:10.651Z,952.86
2022-12-08T23:18:11.682Z,952.85
2022-12-08T23:23:13.305Z,952.7
2022-12-08T23:28:15.234Z,952.74
2022-12-08T23:33:16.884Z,952.65
2022-12-08T23:38:18.346Z,952.65
2022-12-08T23:43:19.645Z,952.35
2022-12-08T23:48:21.062Z,952.56
2022-12-08T23:53:22.831Z,952.37
2022-12-08T23:58:24.243Z,952.37
